Time;durP1;ratioP1;P1;durP2;ratioP2;P2;SDS_P1;SDS_P2;PMS_P1;PMS_P2;Temp;Humidity;BMP_temperature;BMP_pressure;BME280_temperature;BME280_humidity;BME280_pressure;Samples;Min_cycle;Max_cycle;Signal;HPM_P1;HPM_P2
2023/01/06 00:01:55;;;;;;;7.68;3.72;;;11.10;99.90;;;;;;10472553;28;20021;-68
2023/01/06 00:06:55;;;;;;;6.75;3.45;;;11.10;99.90;;;;;;10475993;28;20017;-65
2023/01/06 00:11:56;;;;;;;9.45;3.72;;;11.10;99.90;;;;;;10464199;28;20094;-64
2023/01/06 00:16:57;;;;;;;6.28;3.25;;;11.10;99.90;;;;;;10451553;28;20135;-68
2023/01/06 00:21:57;;;;;;;7.22;3.35;;;11.10;99.90;;;;;;10464822;28;20082;-66
2023/01/06 00:26:58;;;;;;;6.95;3.50;;;11.10;99.90;;;;;;10467872;28;20453;-67
2023/01/06 00:32:00;;;;;;;5.57;3.30;;;11.10;99.90;;;;;;10469098;28;20147;-62
2023/01/06 00:37:01;;;;;;;6.38;3.30;;;11.10;99.90;;;;;;10454424;28;20299;-63
2023/01/06 00:42:02;;;;;;;8.40;3.78;;;11.10;99.90;;;;;;10476563;28;20090;-67
2023/01/06 00:47:06;;;;;;;6.95;3.50;;;11.10;99.90;;;;;;10470213;28;20071;-63
2023/01/06 00:52:07;;;;;;;9.95;3.38;;;11.10;99.90;;;;;;10475526;28;20013;-62
2023/01/06 00:57:08;;;;;;;6.57;3.28;;;11.10;99.90;;;;;;10478350;28;20070;-67
2023/01/06 01:02:08;;;;;;;6.80;3.90;;;11.20;99.90;;;;;;10480848;28;20044;-64
2023/01/06 01:07:09;;;;;;;5.65;3.53;;;11.10;99.90;;;;;;10462164;28;20083;-66
2023/01/06 01:12:11;;;;;;;6.22;3.58;;;11.10;99.90;;;;;;10473323;28;20082;-63
2023/01/06 01:17:14;;;;;;;5.45;3.10;;;11.10;99.90;;;;;;10470036;28;20205;-63
2023/01/06 01:22:15;;;;;;;5.90;2.90;;;11.10;99.90;;;;;;10470140;28;20412;-66
2023/01/06 01:27:17;;;;;;;7.35;3.55;;;11.10;99.90;;;;;;10472906;28;20020;-62
2023/01/06 01:32:17;;;;;;;6.75;3.13;;;11.10;99.90;;;;;;10477036;28;20017;-63
2023/01/06 01:37:18;;;;;;;5.38;3.00;;;11.10;99.90;;;;;;10490024;28;20037;-62
2023/01/06 01:42:20;;;;;;;4.05;2.78;;;11.20;99.90;;;;;;10481034;28;20029;-67
2023/01/06 01:47:35;;;;;;;5.63;3.53;;;11.20;99.90;;;;;;10474787;28;20544;-62
2023/01/06 01:52:37;;;;;;;6.20;3.22;;;11.20;99.90;;;;;;10480175;28;20484;-66
2023/01/06 01:57:45;;;;;;;5.53;3.10;;;11.20;99.90;;;;;;10488660;28;20408;-66
2023/01/06 02:02:46;;;;;;;6.00;3.10;;;11.10;99.90;;;;;;10473087;28;20065;-65
2023/01/06 02:07:47;;;;;;;5.15;2.60;;;11.10;99.90;;;;;;10456037;28;20846;-67
2023/01/06 02:12:52;;;;;;;6.25;3.00;;;11.10;99.90;;;;;;10461531;28;20330;-67
2023/01/06 02:18:19;;;;;;;6.55;2.90;;;11.20;99.90;;;;;;10473665;28;20059;-67
2023/01/06 02:23:22;;;;;;;5.70;3.08;;;11.20;99.90;;;;;;10480274;28;20017;-66
2023/01/06 02:28:47;;;;;;;4.22;2.95;;;11.10;99.90;;;;;;10481355;28;20055;-64
2023/01/06 02:34:31;;;;;;;5.00;2.50;;;11.10;99.90;;;;;;10466937;28;20447;-63
2023/01/06 02:39:35;;;;;;;6.10;2.83;;;11.20;99.90;;;;;;10465749;28;20396;-63
2023/01/06 02:44:57;;;;;;;4.68;2.60;;;11.10;99.90;;;;;;10479117;28;20035;-65
2023/01/06 02:50:22;;;;;;;3.78;2.78;;;11.20;99.90;;;;;;10467670;28;20109;-62
2023/01/06 02:55:44;;;;;;;7.35;2.60;;;11.20;99.90;;;;;;10479763;28;20021;-63
2023/01/06 03:00:51;;;;;;;5.28;2.40;;;11.20;99.90;;;;;;10478457;28;20020;-64
2023/01/06 03:05:58;;;;;;;3.88;2.55;;;11.20;99.90;;;;;;10481197;28;20016;-62
2023/01/06 03:11:00;;;;;;;3.95;2.35;;;11.20;99.90;;;;;;10481511;28;20104;-64
2023/01/06 03:16:01;;;;;;;4.28;2.33;;;11.10;99.90;;;;;;10461903;28;20423;-65
2023/01/06 03:21:07;;;;;;;6.10;2.67;;;11.20;99.90;;;;;;10471169;28;20031;-66
2023/01/06 03:26:08;;;;;;;4.70;2.40;;;11.20;99.90;;;;;;10477611;28;20021;-63
2023/01/06 03:31:26;;;;;;;5.90;2.33;;;11.10;99.90;;;;;;10476253;28;20368;-62
2023/01/06 03:36:48;;;;;;;4.05;2.42;;;11.10;99.90;;;;;;10473575;28;20560;-66
2023/01/06 03:47:40;;;;;;;3.65;2.30;;;11.20;99.90;;;;;;10467911;28;20062;-62
2023/01/06 03:52:47;;;;;;;4.80;2.80;;;11.10;99.90;;;;;;10481942;28;20016;-63
2023/01/06 03:57:51;;;;;;;4.70;2.28;;;11.30;99.90;;;;;;10469436;28;20458;-63
2023/01/06 04:02:52;;;;;;;3.58;2.35;;;11.20;99.90;;;;;;10468160;28;20013;-67
2023/01/06 04:07:53;;;;;;;4.80;2.50;;;11.20;99.90;;;;;;10447274;28;20033;-63
2023/01/06 04:12:54;;;;;;;3.20;2.30;;;11.20;99.90;;;;;;10468042;28;20020;-63
2023/01/06 04:17:54;;;;;;;4.70;2.78;;;11.10;99.90;;;;;;10474103;28;20028;-64
2023/01/06 04:22:57;;;;;;;3.63;2.35;;;11.10;99.90;;;;;;10476194;28;20111;-67
2023/01/06 04:27:57;;;;;;;5.63;2.28;;;11.20;99.90;;;;;;10461084;28;20153;-63
2023/01/06 04:32:58;;;;;;;3.95;2.35;;;11.10;99.90;;;;;;10470057;28;20070;-64
2023/01/06 04:38:02;;;;;;;3.80;2.15;;;11.10;99.90;;;;;;10474058;28;20081;-62
2023/01/06 04:43:05;;;;;;;3.42;2.50;;;11.20;99.90;;;;;;10474566;28;20151;-65
2023/01/06 04:48:07;;;;;;;5.30;2.30;;;11.20;99.90;;;;;;10458181;28;20025;-65
2023/01/06 04:53:10;;;;;;;4.82;2.97;;;11.10;99.90;;;;;;10450357;28;20083;-66
2023/01/06 04:58:10;;;;;;;4.45;2.70;;;11.10;99.90;;;;;;10473203;28;20074;-62
2023/01/06 05:03:11;;;;;;;4.32;2.88;;;11.20;99.90;;;;;;10467867;28;20116;-65
2023/01/06 05:08:12;;;;;;;3.90;2.60;;;11.20;99.90;;;;;;10481476;28;20032;-66
2023/01/06 05:13:12;;;;;;;3.22;2.50;;;11.20;99.90;;;;;;10483248;28;20035;-67
2023/01/06 05:18:13;;;;;;;5.50;2.72;;;11.20;99.90;;;;;;10487029;28;20040;-68
2023/01/06 05:23:14;;;;;;;3.47;2.50;;;11.20;99.90;;;;;;10480076;28;20021;-63
2023/01/06 05:28:15;;;;;;;3.15;2.50;;;11.20;99.90;;;;;;10458466;28;20025;-63
2023/01/06 05:33:16;;;;;;;4.53;2.63;;;11.20;99.90;;;;;;10473887;28;20465;-65
2023/01/06 05:38:16;;;;;;;3.28;2.60;;;11.20;99.90;;;;;;10483132;28;20168;-62
2023/01/06 05:43:17;;;;;;;3.63;2.65;;;11.20;99.90;;;;;;10479044;28;20040;-67
2023/01/06 05:48:18;;;;;;;4.43;2.67;;;11.20;99.90;;;;;;10482786;28;20044;-66
2023/01/06 05:53:19;;;;;;;3.95;2.40;;;11.10;99.90;;;;;;10476843;28;20021;-64
2023/01/06 05:58:19;;;;;;;4.10;2.50;;;11.20;99.90;;;;;;10462815;28;20029;-62
2023/01/06 06:03:20;;;;;;;3.33;2.47;;;11.10;99.90;;;;;;10481785;28;20390;-66
2023/01/06 06:08:21;;;;;;;3.80;2.58;;;11.20;99.90;;;;;;10477530;28;20017;-64
2023/01/06 06:13:21;;;;;;;3.22;2.10;;;11.20;99.90;;;;;;10479480;28;20013;-63
2023/01/06 06:18:22;;;;;;;3.95;2.40;;;11.20;99.90;;;;;;10486722;28;20099;-64
2023/01/06 06:23:22;;;;;;;2.95;2.35;;;11.20;99.90;;;;;;10481018;28;20067;-66
2023/01/06 06:28:23;;;;;;;4.45;2.53;;;11.20;99.90;;;;;;10480402;28;20493;-66
2023/01/06 06:33:24;;;;;;;4.38;2.33;;;11.20;99.90;;;;;;10487958;28;20021;-66
2023/01/06 06:38:24;;;;;;;4.35;2.67;;;11.20;99.90;;;;;;10467304;28;20059;-65
2023/01/06 06:43:25;;;;;;;3.88;2.33;;;11.10;99.90;;;;;;10468999;28;20017;-63
2023/01/06 06:48:28;;;;;;;4.03;2.50;;;11.10;99.90;;;;;;10474025;28;20030;-63
2023/01/06 06:53:28;;;;;;;3.30;2.30;;;11.10;99.90;;;;;;10486683;28;20024;-67
2023/01/06 06:58:29;;;;;;;5.72;2.63;;;11.10;99.90;;;;;;10480587;28;20032;-67
2023/01/06 07:03:30;;;;;;;3.95;2.50;;;11.10;99.90;;;;;;10473397;28;21201;-62
2023/01/06 07:08:34;;;;;;;3.40;2.50;;;11.10;99.90;;;;;;10475213;28;20017;-63
2023/01/06 07:13:38;;;;;;;3.22;2.45;;;11.10;99.90;;;;;;10469872;28;20029;-65
2023/01/06 07:18:39;;;;;;;4.47;2.60;;;11.10;99.90;;;;;;10479276;28;20032;-64
2023/01/06 07:23:40;;;;;;;3.20;2.45;;;11.10;99.90;;;;;;10482371;28;20048;-65
2023/01/06 07:28:40;;;;;;;3.65;2.90;;;11.10;99.90;;;;;;10470614;28;20525;-65
2023/01/06 07:33:41;;;;;;;2.92;2.30;;;11.10;99.90;;;;;;10479087;28;20065;-64
2023/01/06 07:38:41;;;;;;;3.50;2.65;;;11.10;99.90;;;;;;10469906;28;20295;-64
2023/01/06 07:43:42;;;;;;;3.97;2.70;;;11.10;99.90;;;;;;10472226;28;20011;-64
2023/01/06 07:48:43;;;;;;;3.22;2.83;;;11.10;99.90;;;;;;10470586;28;20020;-68
2023/01/06 07:53:43;;;;;;;3.00;2.42;;;11.10;99.90;;;;;;10482436;28;20429;-66
2023/01/06 07:58:44;;;;;;;2.55;2.25;;;11.10;99.90;;;;;;10483011;28;20515;-66
2023/01/06 08:03:45;;;;;;;3.78;2.70;;;11.10;99.90;;;;;;10479022;28;20020;-63
2023/01/06 08:08:45;;;;;;;2.42;2.10;;;11.10;99.90;;;;;;10473703;28;20016;-66
2023/01/06 08:13:46;;;;;;;3.22;2.13;;;11.10;99.90;;;;;;10475841;28;20012;-63
2023/01/06 08:18:47;;;;;;;2.75;2.20;;;11.10;99.90;;;;;;10480199;28;20036;-66
2023/01/06 08:23:47;;;;;;;3.20;2.10;;;11.10;99.90;;;;;;10474998;28;20107;-62
2023/01/06 08:28:48;;;;;;;2.78;2.15;;;11.10;99.90;;;;;;10471437;28;20032;-66
2023/01/06 08:33:50;;;;;;;2.72;2.17;;;11.10;99.90;;;;;;10476808;28;20013;-62
2023/01/06 08:38:51;;;;;;;4.50;2.35;;;11.10;99.90;;;;;;10477117;28;20029;-65
2023/01/06 08:43:54;;;;;;;2.20;2.00;;;11.10;99.90;;;;;;10473561;28;20012;-66
2023/01/06 08:48:56;;;;;;;2.47;1.83;;;11.10;99.90;;;;;;10473870;28;20056;-67
2023/01/06 08:53:57;;;;;;;2.70;2.22;;;11.10;99.90;;;;;;10477374;28;20021;-66
2023/01/06 08:59:00;;;;;;;5.07;2.53;;;11.10;99.90;;;;;;10479114;28;20316;-66
2023/01/06 09:04:04;;;;;;;2.47;1.70;;;11.10;99.90;;;;;;10476764;28;20394;-63
2023/01/06 09:09:06;;;;;;;3.38;1.90;;;11.10;99.90;;;;;;10447228;28;20025;-64
2023/01/06 09:14:07;;;;;;;3.22;1.70;;;11.10;99.90;;;;;;10471237;28;20489;-66
2023/01/06 09:19:11;;;;;;;4.40;1.75;;;11.20;99.90;;;;;;10475125;28;20033;-65
2023/01/06 09:24:13;;;;;;;5.30;1.77;;;11.20;99.90;;;;;;10472550;28;20485;-62
2023/01/06 09:29:13;;;;;;;3.38;2.13;;;11.20;99.90;;;;;;10476842;28;20080;-65
2023/01/06 09:34:14;;;;;;;4.88;1.20;;;11.30;99.90;;;;;;10446720;28;20033;-64
2023/01/06 09:39:15;;;;;;;8.38;1.95;;;11.20;99.90;;;;;;10466947;28;20388;-64
2023/01/06 09:44:21;;;;;;;5.35;1.55;;;11.20;99.90;;;;;;10472548;28;20036;-64
2023/01/06 09:49:36;;;;;;;6.38;1.27;;;11.20;99.90;;;;;;10470353;28;20028;-65
2023/01/06 09:54:45;;;;;;;3.38;1.20;;;11.30;99.90;;;;;;10475731;28;20112;-65
2023/01/06 09:59:53;;;;;;;6.57;1.27;;;11.30;99.90;;;;;;10481865;28;20329;-65
2023/01/06 10:04:54;;;;;;;5.35;1.73;;;11.30;99.90;;;;;;10474623;28;20024;-65
2023/01/06 10:10:13;;;;;;;2.50;1.02;;;11.40;99.90;;;;;;10484976;28;20024;-65
2023/01/06 10:15:39;;;;;;;1.38;1.00;;;11.40;99.90;;;;;;10479974;28;20432;-65
2023/01/06 10:20:52;;;;;;;5.30;1.15;;;11.40;99.90;;;;;;10470448;28;20194;-63
2023/01/06 10:25:57;;;;;;;4.57;1.23;;;11.40;99.90;;;;;;10479246;28;20540;-64
2023/01/06 10:31:04;;;;;;;5.40;1.25;;;11.50;99.90;;;;;;10477787;28;20385;-64
2023/01/06 10:36:11;;;;;;;5.60;1.38;;;11.70;99.90;;;;;;10472426;28;20417;-64
2023/01/06 10:41:30;;;;;;;3.95;0.98;;;12.00;99.90;;;;;;10483740;28;20544;-64
2023/01/06 10:46:34;;;;;;;3.63;1.00;;;11.70;99.90;;;;;;10477882;28;20541;-64
2023/01/06 10:51:40;;;;;;;2.13;1.15;;;11.80;99.90;;;;;;10476057;28;20077;-63
2023/01/06 10:56:47;;;;;;;2.38;1.30;;;11.90;99.90;;;;;;10472988;28;20040;-63
2023/01/06 11:01:54;;;;;;;3.78;1.67;;;11.90;99.90;;;;;;10470089;28;20024;-65
2023/01/06 11:07:00;;;;;;;5.25;0.95;;;12.00;99.90;;;;;;10479423;28;20489;-63
2023/01/06 11:12:10;;;;;;;2.55;0.85;;;12.00;99.90;;;;;;10477859;28;20052;-63
2023/01/06 11:17:15;;;;;;;3.25;1.83;;;12.00;99.90;;;;;;10473302;28;20101;-66
2023/01/06 11:22:45;;;;;;;3.88;1.10;;;12.00;99.90;;;;;;10472940;28;20047;-63
2023/01/06 11:28:14;;;;;;;3.45;1.23;;;12.10;99.90;;;;;;10453885;28;20036;-64
2023/01/06 11:33:18;;;;;;;2.50;0.85;;;12.10;99.90;;;;;;10472389;28;20040;-64
2023/01/06 11:38:20;;;;;;;3.17;0.93;;;12.10;99.90;;;;;;10463512;28;20064;-68
2023/01/06 11:43:27;;;;;;;5.05;1.05;;;12.10;99.90;;;;;;10467364;28;20029;-65
2023/01/06 11:48:51;;;;;;;3.53;0.98;;;12.10;99.90;;;;;;10456688;28;20009;-63
2023/01/06 11:53:56;;;;;;;1.52;1.00;;;12.00;99.90;;;;;;10478352;28;20028;-66
2023/01/06 11:59:07;;;;;;;4.15;1.08;;;12.00;99.90;;;;;;10470711;28;20040;-67
2023/01/06 12:04:40;;;;;;;8.25;1.20;;;12.00;99.90;;;;;;10473084;28;20020;-64
2023/01/06 12:09:44;;;;;;;2.40;0.98;;;12.00;99.90;;;;;;10458235;28;20680;-64
2023/01/06 12:14:45;;;;;;;4.47;0.95;;;11.90;99.90;;;;;;10470418;28;20384;-66
2023/01/06 12:19:55;;;;;;;2.28;1.10;;;11.90;99.90;;;;;;10470067;28;20056;-64
2023/01/06 12:24:58;;;;;;;5.78;0.88;;;11.90;99.90;;;;;;10474892;28;20096;-67
2023/01/06 12:30:03;;;;;;;5.45;1.15;;;11.90;99.90;;;;;;10451703;28;20052;-67
2023/01/06 12:35:10;;;;;;;1.65;0.70;;;11.80;99.90;;;;;;10471934;28;20024;-66
2023/01/06 12:40:22;;;;;;;3.30;0.90;;;11.90;99.90;;;;;;10468619;28;20045;-65
2023/01/06 12:45:30;;;;;;;4.03;0.93;;;11.80;99.90;;;;;;10465056;28;20029;-69
2023/01/06 12:50:49;;;;;;;4.25;1.05;;;11.80;99.90;;;;;;10447737;28;20048;-69
2023/01/06 12:56:10;;;;;;;2.17;0.98;;;11.80;99.90;;;;;;10469856;28;20027;-69
2023/01/06 13:01:29;;;;;;;3.90;0.80;;;11.80;99.90;;;;;;10466537;28;20029;-68
2023/01/06 13:07:01;;;;;;;2.17;1.35;;;11.70;99.90;;;;;;10475525;28;20016;-68
2023/01/06 13:12:20;;;;;;;2.05;0.80;;;11.70;99.90;;;;;;10439039;28;20282;-69
2023/01/06 13:17:40;;;;;;;2.45;0.80;;;11.70;99.90;;;;;;10465430;28;20040;-68
2023/01/06 13:23:10;;;;;;;5.95;1.13;;;11.70;99.90;;;;;;10467988;28;20021;-65
2023/01/06 13:28:14;;;;;;;5.95;1.00;;;11.70;99.90;;;;;;10462803;28;20024;-65
2023/01/06 13:33:36;;;;;;;2.75;0.60;;;11.70;99.90;;;;;;10471915;28;20095;-65
2023/01/06 13:38:57;;;;;;;1.60;1.10;;;11.60;99.90;;;;;;10467575;28;20473;-65
2023/01/06 13:43:59;;;;;;;0.88;0.60;;;11.60;99.90;;;;;;10466465;28;20028;-66
2023/01/06 13:49:02;;;;;;;3.53;1.08;;;11.60;99.90;;;;;;10450052;28;20052;-65
2023/01/06 13:54:03;;;;;;;2.25;0.60;;;11.60;99.90;;;;;;10480447;28;20427;-65
2023/01/06 13:59:20;;;;;;;3.33;0.73;;;11.50;99.90;;;;;;10493768;22;20097;-69
2023/01/06 14:04:44;;;;;;;2.03;0.80;;;11.50;99.90;;;;;;10517583;28;20028;-68
2023/01/06 14:09:48;;;;;;;3.15;0.80;;;11.60;99.90;;;;;;10510424;28;20056;-68
2023/01/06 14:15:01;;;;;;;3.58;0.70;;;11.50;99.90;;;;;;10520294;28;20024;-68
2023/01/06 14:20:03;;;;;;;1.40;0.75;;;11.50;99.90;;;;;;10508914;28;20031;-68
2023/01/06 14:25:07;;;;;;;1.50;0.60;;;11.50;99.90;;;;;;10508255;28;20021;-68
2023/01/06 14:30:32;;;;;;;4.75;0.68;;;11.50;99.90;;;;;;10508001;28;20110;-73
2023/01/06 14:35:40;;;;;;;3.40;0.90;;;12.10;99.90;;;;;;10512811;28;20036;-73
2023/01/06 14:40:54;;;;;;;;;;;11.50;99.90;;;;;;10521217;28;20025;-73
2023/01/06 14:45:56;;;;;;;5.50;0.70;;;11.50;99.90;;;;;;10508032;28;19990;-74
2023/01/06 14:50:57;;;;;;;2.38;0.88;;;11.50;99.90;;;;;;10515224;28;20056;-69
2023/01/06 14:55:59;;;;;;;1.88;0.50;;;11.40;99.90;;;;;;10494450;28;20071;-70
2023/01/06 15:01:01;;;;;;;3.70;0.93;;;11.40;99.90;;;;;;10496439;28;20504;-69
2023/01/06 15:06:10;;;;;;;3.60;0.80;;;11.40;99.90;;;;;;10489089;28;20064;-69
2023/01/06 15:11:19;;;;;;;4.35;0.80;;;11.40;99.90;;;;;;10492647;28;20020;-71
2023/01/06 15:16:35;;;;;;;4.82;0.98;;;11.30;99.90;;;;;;10501881;28;20485;-69
2023/01/06 15:21:41;;;;;;;1.70;0.50;;;11.30;99.90;;;;;;10495696;28;20036;-68
2023/01/06 15:26:42;;;;;;;1.67;0.45;;;11.30;99.90;;;;;;10494870;28;20047;-69
2023/01/06 15:31:44;;;;;;;2.33;0.68;;;11.30;99.90;;;;;;10507920;28;20413;-73
2023/01/06 15:36:47;;;;;;;6.63;0.98;;;11.20;99.90;;;;;;10495529;28;21200;-68
2023/01/06 15:41:48;;;;;;;3.25;0.70;;;11.20;99.90;;;;;;10508917;28;20012;-72
2023/01/06 15:46:51;;;;;;;8.02;1.02;;;11.20;99.90;;;;;;10507964;28;20036;-69
2023/01/06 15:52:03;;;;;;;2.67;1.00;;;11.20;99.90;;;;;;10497109;28;20065;-68
2023/01/06 15:57:10;;;;;;;6.05;0.90;;;11.20;99.90;;;;;;10489798;28;20036;-69
2023/01/06 16:02:17;;;;;;;4.63;0.70;;;11.20;99.90;;;;;;10496035;28;20035;-69
2023/01/06 16:07:40;;;;;;;2.88;0.57;;;11.10;99.90;;;;;;10500256;28;20119;-67
2023/01/06 16:12:41;;;;;;;7.05;0.80;;;11.10;99.90;;;;;;10498395;28;20032;-68
2023/01/06 16:17:44;;;;;;;3.05;0.70;;;11.10;99.90;;;;;;10508299;28;20035;-67
2023/01/06 16:22:50;;;;;;;3.65;1.23;;;11.10;99.90;;;;;;10512009;28;20021;-68
2023/01/06 16:27:52;;;;;;;2.22;0.70;;;11.10;99.90;;;;;;10517488;28;20052;-68
2023/01/06 16:32:55;;;;;;;3.65;0.93;;;11.10;99.90;;;;;;10506201;28;20094;-67
2023/01/06 16:37:56;;;;;;;1.38;0.80;;;11.10;99.90;;;;;;10501208;28;20286;-67
2023/01/06 16:43:01;;;;;;;1.75;0.70;;;11.10;99.90;;;;;;10506280;28;20032;-68
2023/01/06 16:48:02;;;;;;;4.07;0.95;;;11.10;99.90;;;;;;10517694;28;20063;-69
2023/01/06 16:53:08;;;;;;;1.20;0.73;;;11.10;99.90;;;;;;10502162;28;20036;-68
2023/01/06 16:58:18;;;;;;;4.20;1.13;;;11.00;99.90;;;;;;10485175;28;20035;-69
2023/01/06 17:03:24;;;;;;;2.17;1.30;;;11.00;99.90;;;;;;10509679;28;20026;-67
2023/01/06 17:08:33;;;;;;;3.25;1.40;;;10.90;99.90;;;;;;10514446;28;20299;-69
2023/01/06 17:13:33;;;;;;;;;;;10.80;99.90;;;;;;10503095;28;20021;-69
2023/01/06 17:18:40;;;;;;;5.07;1.90;;;10.80;99.90;;;;;;10517446;28;19907;-69
2023/01/06 17:23:51;;;;;;;5.43;2.30;;;10.90;99.90;;;;;;10526382;28;20077;-69
2023/01/06 17:28:53;;;;;;;4.53;1.98;;;10.80;99.90;;;;;;10522257;28;20020;-69
2023/01/06 17:33:54;;;;;;;5.18;2.25;;;10.80;99.90;;;;;;10515550;28;20032;-70
2023/01/06 17:38:55;;;;;;;2.88;2.10;;;10.80;99.90;;;;;;10509467;28;20046;-70
2023/01/06 17:43:55;;;;;;;2.28;1.52;;;10.80;99.90;;;;;;10517732;28;20078;-70
2023/01/06 17:49:06;;;;;;;3.75;1.80;;;10.80;99.90;;;;;;10505979;28;20030;-70
2023/01/06 17:59:34;;;;;;;3.78;1.63;;;11.60;99.90;;;;;;10511919;28;20031;-72
2023/01/06 18:04:35;;;;;;;3.13;1.40;;;10.80;99.90;;;;;;10495900;28;20029;-72
2023/01/06 18:09:35;;;;;;;6.40;2.00;;;10.80;99.90;;;;;;10511526;28;20103;-71
2023/01/06 18:14:41;;;;;;;3.38;1.63;;;10.80;99.90;;;;;;10514178;28;20150;-73
2023/01/06 18:19:41;;;;;;;6.90;1.65;;;10.80;99.90;;;;;;10506459;28;20509;-69
2023/01/06 18:24:43;;;;;;;2.63;1.75;;;10.80;99.90;;;;;;10503943;28;20028;-70
2023/01/06 18:29:44;;;;;;;5.72;1.55;;;10.80;99.90;;;;;;10512061;28;20394;-69
2023/01/06 18:34:46;;;;;;;2.50;1.33;;;10.80;99.90;;;;;;10507870;28;20040;-71
2023/01/06 18:39:48;;;;;;;3.80;1.23;;;10.80;99.90;;;;;;10509970;28;20077;-73
2023/01/06 18:44:55;;;;;;;2.85;1.15;;;10.80;99.90;;;;;;10512909;28;20532;-70
2023/01/06 18:50:19;;;;;;;3.17;1.30;;;10.80;99.90;;;;;;10498428;28;20093;-70
2023/01/06 18:55:29;;;;;;;3.45;1.30;;;10.80;99.90;;;;;;10472957;22;20053;-65
2023/01/06 19:00:34;;;;;;;3.53;1.52;;;10.80;99.90;;;;;;10438899;28;20527;-65
2023/01/06 19:05:35;;;;;;;3.33;1.20;;;10.70;99.90;;;;;;10429537;28;20022;-65
2023/01/06 19:10:39;;;;;;;2.90;1.17;;;10.70;99.90;;;;;;10432327;28;20025;-65
2023/01/06 19:15:41;;;;;;;3.15;1.45;;;10.70;99.90;;;;;;10423893;28;20392;-65
2023/01/06 19:20:44;;;;;;;2.97;1.60;;;10.70;99.90;;;;;;10419176;28;20076;-66
2023/01/06 19:25:49;;;;;;;3.17;1.30;;;10.70;99.90;;;;;;10425665;28;20036;-65
2023/01/06 19:30:50;;;;;;;4.45;1.08;;;10.60;99.90;;;;;;10420728;28;20402;-65
2023/01/06 19:36:15;;;;;;;4.20;1.40;;;10.60;99.90;;;;;;10420707;28;20392;-65
2023/01/06 19:41:31;;;;;;;4.18;1.52;;;10.60;99.90;;;;;;10391548;28;20098;-65
2023/01/06 19:46:37;;;;;;;2.72;1.45;;;10.60;99.90;;;;;;10426763;28;20029;-65
2023/01/06 19:51:38;;;;;;;2.47;1.30;;;10.60;99.90;;;;;;10443037;28;20017;-65
2023/01/06 19:56:40;;;;;;;3.05;1.42;;;10.70;99.90;;;;;;10441654;28;20075;-65
2023/01/06 20:01:45;;;;;;;3.15;1.23;;;10.60;99.90;;;;;;10441094;28;21001;-65
2023/01/06 20:06:45;;;;;;;3.05;1.63;;;10.60;99.90;;;;;;10436840;28;20027;-65
2023/01/06 20:11:47;;;;;;;2.50;1.33;;;10.60;99.90;;;;;;10451499;28;20025;-65
2023/01/06 20:16:48;;;;;;;4.85;1.40;;;10.60;99.90;;;;;;10436330;28;20040;-65
2023/01/06 20:21:49;;;;;;;3.58;1.77;;;10.60;99.90;;;;;;10441818;28;20013;-67
2023/01/06 20:26:49;;;;;;;2.63;1.65;;;10.60;99.90;;;;;;10441812;28;20140;-65
2023/01/06 20:31:50;;;;;;;5.55;2.47;;;10.60;99.90;;;;;;10436475;28;20033;-64
2023/01/06 20:36:51;;;;;;;2.10;1.50;;;10.60;99.90;;;;;;10434651;28;20025;-64
2023/01/06 20:41:51;;;;;;;2.65;1.50;;;10.60;99.90;;;;;;10434775;28;20009;-66
2023/01/06 20:46:52;;;;;;;3.30;1.55;;;10.60;99.90;;;;;;10425945;28;20087;-65
2023/01/06 20:51:52;;;;;;;4.20;1.80;;;10.60;99.90;;;;;;10413907;28;20029;-65
2023/01/06 20:56:53;;;;;;;5.45;2.03;;;10.60;99.90;;;;;;10392864;28;20033;-65
2023/01/06 21:01:54;;;;;;;3.70;1.70;;;10.60;99.90;;;;;;10406583;28;20372;-64
2023/01/06 21:06:54;;;;;;;4.10;1.98;;;10.60;99.90;;;;;;10411743;28;20022;-65
2023/01/06 21:11:55;;;;;;;3.92;1.75;;;10.60;99.90;;;;;;10415738;28;20098;-65
2023/01/06 21:16:56;;;;;;;4.72;2.10;;;10.60;99.90;;;;;;10412090;28;20044;-65
2023/01/06 21:21:56;;;;;;;5.47;2.80;;;10.60;99.90;;;;;;10418613;28;20045;-65
2023/01/06 21:26:57;;;;;;;5.40;2.13;;;10.60;99.90;;;;;;10412840;28;20049;-65
2023/01/06 21:31:57;;;;;;;4.30;2.53;;;10.60;99.90;;;;;;10410748;28;20568;-65
2023/01/06 21:36:58;;;;;;;5.20;2.58;;;10.60;99.90;;;;;;10445457;22;20513;-65
2023/01/06 21:47:18;;;;;;;5.53;2.63;;;10.60;99.90;;;;;;10505591;28;20020;-66
2023/01/06 21:52:19;;;;;;;6.25;3.10;;;10.60;99.90;;;;;;10520385;22;20467;-66
2023/01/06 21:57:20;;;;;;;7.03;3.28;;;10.60;99.90;;;;;;10520428;28;20028;-66
2023/01/06 22:02:20;;;;;;;6.15;3.17;;;10.60;99.90;;;;;;10512253;28;20023;-66
2023/01/06 22:07:22;;;;;;;6.18;3.50;;;10.60;99.90;;;;;;10516853;28;20031;-66
2023/01/06 22:12:22;;;;;;;5.90;3.75;;;10.60;99.90;;;;;;10516144;28;20066;-67
2023/01/06 22:17:23;;;;;;;7.25;3.92;;;10.60;99.90;;;;;;10518954;28;20097;-66
2023/01/06 22:22:24;;;;;;;7.93;4.07;;;10.60;99.90;;;;;;10519816;28;20113;-66
2023/01/06 22:27:25;;;;;;;8.82;4.68;;;10.60;99.90;;;;;;10518163;28;20020;-66
2023/01/06 22:32:27;;;;;;;8.60;4.70;;;10.70;99.90;;;;;;10526933;28;20016;-67
2023/01/06 22:37:28;;;;;;;7.10;4.35;;;10.70;99.90;;;;;;10520522;28;20036;-66
2023/01/06 22:42:29;;;;;;;8.10;4.45;;;10.60;99.90;;;;;;10513004;28;20499;-66
2023/01/06 22:47:30;;;;;;;10.18;4.80;;;11.30;99.90;;;;;;10517288;28;20027;-67
2023/01/06 22:52:31;;;;;;;8.90;4.90;;;10.70;99.90;;;;;;10511857;28;20451;-63
2023/01/06 22:57:31;;;;;;;7.88;4.85;;;10.70;99.90;;;;;;10511721;28;20119;-68
2023/01/06 23:02:32;;;;;;;8.63;4.82;;;10.70;99.90;;;;;;10508297;28;20763;-67
2023/01/06 23:07:37;;;;;;;10.57;5.53;;;10.70;99.90;;;;;;10500057;28;20033;-68
2023/01/06 23:12:39;;;;;;;9.60;5.28;;;10.70;99.90;;;;;;10510332;28;20031;-68
2023/01/06 23:17:40;;;;;;;7.95;5.20;;;10.70;99.90;;;;;;10504245;28;20033;-67
2023/01/06 23:22:40;;;;;;;9.85;6.00;;;10.70;99.90;;;;;;10502963;28;20073;-67
2023/01/06 23:27:41;;;;;;;10.07;5.82;;;10.70;99.90;;;;;;10500533;28;20039;-67
2023/01/06 23:32:42;;;;;;;8.52;5.20;;;10.70;99.90;;;;;;10504770;28;20016;-67
2023/01/06 23:37:43;;;;;;;11.27;5.80;;;10.70;99.90;;;;;;10509878;28;20052;-67
2023/01/06 23:42:44;;;;;;;9.55;5.88;;;10.70;99.90;;;;;;10506168;28;20020;-68
2023/01/06 23:47:45;;;;;;;10.02;5.90;;;10.70;99.90;;;;;;10506938;28;20449;-68
2023/01/06 23:52:45;;;;;;;8.32;5.22;;;10.80;99.90;;;;;;10522769;28;20027;-67
2023/01/06 23:57:46;;;;;;;9.85;5.90;;;10.80;99.90;;;;;;10522617;28;20036;-68
